Time;durP1;ratioP1;P1;durP2;ratioP2;P2;SDS_P1;SDS_P2;PMS_P1;PMS_P2;Temp;Humidity;BMP_temperature;BMP_pressure;BME280_temperature;BME280_humidity;BME280_pressure;Samples;Min_cycle;Max_cycle;Signal;HPM_P1;HPM_P2
2022/05/15 00:01:05;;;;;;;16.58;3.35;;;;;;;9.40;100.00;101284.34;4940087;29;20024;-85
2022/05/15 00:03:30;;;;;;;23.20;3.70;;;;;;;10.48;100.00;101463.44;4943507;29;20031;-82
2022/05/15 00:06:02;;;;;;;18.00;3.42;;;;;;;9.99;100.00;101383.16;4938801;29;20044;-82
2022/05/15 00:08:32;;;;;;;23.30;3.63;;;;;;;9.42;100.00;101287.72;4933780;29;20016;-83
2022/05/15 00:10:59;;;;;;;16.35;3.67;;;;;;;11.08;100.00;101559.44;4939096;29;20008;-85
2022/05/15 00:13:26;;;;;;;14.55;3.40;;;;;;;10.01;100.00;101365.81;5039148;23;20075;-85
2022/05/15 00:15:53;;;;;;;15.95;3.50;;;;;;;10.53;100.00;101475.34;4941019;29;20036;-85
2022/05/15 00:18:21;;;;;;;12.27;2.78;;;;;;;9.40;100.00;101285.22;4909311;29;20033;-85
2022/05/15 00:20:47;;;;;;;16.50;3.40;;;;;;;10.43;100.00;101428.16;4940466;29;20048;-85
2022/05/15 00:23:14;;;;;;;10.20;2.28;;;;;;;9.69;100.00;101318.56;4939961;29;20052;-85
2022/05/15 00:25:40;;;;;;;17.08;3.08;;;;;;;9.86;100.00;101343.44;4940865;29;20055;-84
2022/05/15 00:28:07;;;;;;;14.30;3.20;;;;;;;9.47;100.00;101279.09;4923732;29;20028;-85
2022/05/15 00:30:35;;;;;;;21.67;4.05;;;;;;;11.06;100.00;101534.56;4939948;29;20039;-84
2022/05/15 00:33:01;;;;;;;17.10;3.47;;;;;;;11.14;100.00;101549.78;4923096;29;20031;-85
2022/05/15 00:35:27;;;;;;;17.42;3.58;;;;;;;9.47;100.00;101279.09;4939915;29;20012;-85
2022/05/15 00:37:52;;;;;;;14.23;3.75;;;;;;;11.10;100.00;101553.88;4923264;29;20351;-85
2022/05/15 00:40:20;;;;;;;17.48;3.45;;;;;;;10.10;100.00;101396.19;4923973;29;20125;-85
2022/05/15 00:42:45;;;;;;;19.75;3.20;;;;;;;9.85;100.00;101337.22;4940011;29;20036;-85
2022/05/15 00:45:12;;;;;;;15.27;3.13;;;;;;;10.11;100.00;101387.09;4923601;29;20028;-85
2022/05/15 00:47:38;;;;;;;23.95;4.05;;;;;;;10.40;100.00;101431.22;4939048;29;20032;-85
2022/05/15 00:50:07;;;;;;;21.42;3.70;;;;;;;11.20;100.00;101571.44;4939348;29;20043;-85
2022/05/15 00:52:36;;;;;;;20.65;4.13;;;;;;;9.85;100.00;101339.91;4918791;29;20029;-86
2022/05/15 00:55:04;;;;;;;15.77;3.30;;;;;;;10.58;100.00;101440.63;4922491;29;20024;-85
2022/05/15 00:57:49;;;;;;;16.95;3.20;;;;;;;11.09;100.00;101528.78;4950475;29;20028;-85
2022/05/15 01:00:20;;;;;;;15.43;3.53;;;;;;;10.18;100.00;101409.53;4923102;29;20146;-86
2022/05/15 01:03:00;;;;;;;14.77;3.30;;;;;;;10.57;100.00;101473.13;4940055;29;20030;-86
2022/05/15 01:05:25;;;;;;;19.00;3.40;;;;;;;9.45;100.00;101284.66;4914079;29;20027;-85
2022/05/15 01:07:52;;;;;;;11.60;2.75;;;;;;;10.00;100.00;101380.28;4923487;29;20028;-86
2022/05/15 01:10:18;;;;;;;19.75;3.22;;;;;;;10.24;100.00;101419.56;4923968;29;20023;-85
2022/05/15 01:12:44;;;;;;;17.77;4.00;;;;;;;9.84;100.00;101349.00;4933237;29;20076;-84
2022/05/15 01:15:16;;;;;;;19.77;3.60;;;;;;;9.67;100.00;101336.72;4958784;29;20075;-86
2022/05/15 01:17:42;;;;;;;16.52;3.38;;;;;;;9.56;100.00;101299.50;4958160;29;20036;-86
2022/05/15 01:20:14;;;;;;;12.68;2.00;;;;;;;9.61;100.00;101308.72;4941915;29;20040;-84
2022/05/15 01:22:40;;;;;;;14.60;3.20;;;;;;;10.16;100.00;101419.63;4957763;29;20088;-85
2022/05/15 01:25:12;;;;;;;16.92;3.45;;;;;;;10.60;100.00;101488.06;4941917;29;20035;-85
2022/05/15 01:27:37;;;;;;;16.92;3.40;;;;;;;10.23;100.00;101415.22;4957930;29;20146;-85
2022/05/15 01:30:05;;;;;;;12.23;2.70;;;;;;;9.86;100.00;101371.16;4957525;29;20028;-85
2022/05/15 01:32:31;;;;;;;12.18;3.15;;;;;;;10.20;100.00;101383.31;4958086;29;20018;-85
2022/05/15 01:34:57;;;;;;;15.32;2.83;;;;;;;11.21;100.00;101575.78;4941289;29;20028;-84
2022/05/15 01:37:23;;;;;;;20.08;3.88;;;;;;;11.31;100.00;101588.16;4940739;29;20027;-85
2022/05/15 01:39:50;;;;;;;8.57;2.40;;;;;;;11.23;100.00;101564.84;4956290;29;20031;-84
2022/05/15 01:42:15;;;;;;;16.05;3.40;;;;;;;10.08;100.00;101374.00;4956635;29;20088;-84
2022/05/15 01:44:43;;;;;;;12.55;2.97;;;;;;;10.00;100.00;101352.56;4956866;29;20015;-84
2022/05/15 01:47:09;;;;;;;16.38;3.38;;;;;;;9.98;100.00;101370.72;4956743;29;20016;-85
2022/05/15 01:49:37;;;;;;;15.60;2.92;;;;;;;11.27;100.00;101583.13;4956628;29;20031;-85
2022/05/15 01:52:03;;;;;;;12.75;2.53;;;;;;;9.90;100.00;101377.03;4940063;29;20019;-85
2022/05/15 01:54:29;;;;;;;19.23;3.35;;;;;;;10.67;100.00;101479.06;4940328;29;20035;-85
2022/05/15 01:56:55;;;;;;;11.35;3.08;;;;;;;9.64;100.00;101331.72;4956539;29;20035;-85
2022/05/15 01:59:20;;;;;;;14.25;3.13;;;;;;;10.36;100.00;101457.66;4957019;29;20052;-85
2022/05/15 02:01:46;;;;;;;13.13;3.50;;;;;;;9.73;100.00;101345.91;4942335;29;20047;-85
2022/05/15 02:04:12;;;;;;;13.52;3.53;;;;;;;9.57;100.00;101319.97;4956773;29;20035;-85
2022/05/15 02:06:38;;;;;;;19.92;3.58;;;;;;;9.95;100.00;101382.69;4955836;29;20034;-84
2022/05/15 02:09:05;;;;;;;10.38;2.53;;;;;;;10.41;100.00;101462.50;4940073;29;20044;-85
2022/05/15 02:11:31;;;;;;;15.95;3.40;;;;;;;9.91;100.00;101391.28;4939535;29;20031;-82
2022/05/15 02:13:56;;;;;;;17.83;4.57;;;;;;;9.64;100.00;101358.56;4939054;29;20112;-84
2022/05/15 02:16:22;;;;;;;18.48;4.28;;;;;;;9.75;100.00;101376.97;4937964;29;20044;-85
2022/05/15 02:18:48;;;;;;;13.50;3.03;;;;;;;10.63;100.00;101520.84;4936798;29;20032;-84
2022/05/15 02:21:14;;;;;;;14.20;3.03;;;;;;;9.82;100.00;101387.81;4937047;29;20039;-85
2022/05/15 02:23:40;;;;;;;14.85;3.65;;;;;;;9.71;100.00;101372.97;4931795;29;20032;-83
2022/05/15 02:26:05;;;;;;;19.45;2.92;;;;;;;9.70;100.00;101368.63;4931683;29;20028;-85
2022/05/15 02:28:31;;;;;;;11.45;2.65;;;;;;;9.85;100.00;101399.06;4936164;29;20037;-83
2022/05/15 02:30:57;;;;;;;11.38;2.38;;;;;;;9.73;100.00;101373.59;4936818;29;20039;-85
2022/05/15 02:33:22;;;;;;;12.20;3.08;;;;;;;10.07;100.00;101428.81;4937331;29;20027;-84
2022/05/15 02:35:48;;;;;;;13.85;3.53;;;;;;;10.06;100.00;101410.97;4937595;29;20021;-85
2022/05/15 02:38:16;;;;;;;17.83;3.88;;;;;;;11.20;100.00;101602.94;4935748;29;20036;-85
2022/05/15 02:40:42;;;;;;;14.02;3.05;;;;;;;10.17;100.00;101444.69;4936792;29;20032;-85
2022/05/15 02:43:08;;;;;;;10.05;2.55;;;;;;;9.81;100.00;101392.38;4936999;29;20032;-84
2022/05/15 02:45:33;;;;;;;18.08;3.25;;;;;;;10.30;100.00;101472.69;4937070;29;20044;-83
2022/05/15 02:47:59;;;;;;;13.10;3.22;;;;;;;11.16;100.00;101596.22;4936070;29;20028;-85
2022/05/15 02:53:09;;;;;;;12.80;4.03;;;;;;;10.03;100.00;101406.81;4937888;29;20038;-84
2022/05/15 02:55:36;;;;;;;13.60;2.95;;;;;;;10.13;100.00;101446.88;4936942;29;20028;-83
2022/05/15 02:58:02;;;;;;;12.98;3.00;;;;;;;9.57;100.00;101352.22;4936458;29;20096;-84
2022/05/15 03:00:28;;;;;;;14.88;2.75;;;;;;;9.68;100.00;101383.25;4938794;29;20016;-85
2022/05/15 03:02:54;;;;;;;15.13;3.28;;;;;;;9.74;100.00;101391.41;4940026;29;20052;-85
2022/05/15 03:05:21;;;;;;;9.00;2.40;;;;;;;9.67;100.00;101393.16;4939303;29;20028;-84
2022/05/15 03:07:48;;;;;;;16.42;3.40;;;;;;;11.27;100.00;101637.03;4940762;29;20035;-84
2022/05/15 03:10:15;;;;;;;13.93;3.60;;;;;;;9.71;100.00;101375.66;4941291;29;20099;-85
2022/05/15 03:12:42;;;;;;;13.73;3.20;;;;;;;11.03;100.00;101540.31;4948526;29;20044;-85
2022/05/15 03:15:11;;;;;;;13.90;3.13;;;;;;;11.80;100.00;101644.22;4959674;29;20047;-85
2022/05/15 03:17:47;;;;;;;17.42;3.38;;;;;;;10.49;100.00;101390.59;4959659;29;20022;-85
2022/05/15 03:20:17;;;;;;;13.15;2.92;;;;;;;11.92;100.00;101648.13;4942487;29;20035;-86
2022/05/15 03:22:43;;;;;;;13.10;2.80;;;;;;;10.52;100.00;101392.09;4959551;29;20079;-85
2022/05/15 03:25:09;;;;;;;13.68;3.03;;;;;;;11.05;100.00;101476.31;4944067;29;20008;-84
2022/05/15 03:27:51;;;;;;;16.17;3.40;;;;;;;11.41;100.00;101515.97;4958828;29;20031;-84
2022/05/15 03:30:17;;;;;;;12.95;3.13;;;;;;;11.38;100.00;101486.69;4943654;29;20069;-84
2022/05/15 03:32:42;;;;;;;14.15;2.72;;;;;;;12.37;100.00;101648.91;4958899;29;20478;-85
2022/05/15 03:35:09;;;;;;;16.08;3.03;;;;;;;10.93;100.00;101407.81;4959298;29;20020;-85
2022/05/15 03:37:34;;;;;;;16.38;3.92;;;;;;;12.44;100.00;101657.91;4942479;29;20043;-84
2022/05/15 03:40:00;;;;;;;14.68;3.22;;;;;;;10.88;100.00;101372.50;4942180;29;20020;-84
2022/05/15 03:42:26;;;;;;;13.35;3.25;;;;;;;10.98;100.00;101397.28;4942864;29;20039;-84
2022/05/15 03:44:53;;;;;;;17.67;3.63;;;;;;;12.05;100.00;101566.53;4962030;29;20036;-85
2022/05/15 03:47:19;;;;;;;10.15;3.10;;;;;;;10.88;100.00;101394.06;4959296;29;20024;-85
2022/05/15 03:49:45;;;;;;;12.90;2.88;;;;;;;12.23;100.00;101578.59;4942715;29;20034;-85
2022/05/15 03:52:12;;;;;;;16.27;2.58;;;;;;;11.16;100.00;101397.75;4936536;29;20035;-85
2022/05/15 03:54:37;;;;;;;15.30;2.90;;;;;;;11.47;100.00;101435.19;4923468;29;20029;-84
2022/05/15 03:57:04;;;;;;;11.75;2.65;;;;;;;11.65;100.00;101440.16;4944090;29;20031;-85
2022/05/15 03:59:34;;;;;;;13.77;3.08;;;;;;;12.55;100.00;101541.34;4959611;29;20027;-86
2022/05/15 04:02:01;;;;;;;14.23;2.97;;;;;;;13.14;100.00;101649.06;4942905;29;20450;-84
2022/05/15 04:04:27;;;;;;;11.45;2.45;;;;;;;13.11;100.00;101668.38;4959012;29;20007;-84
2022/05/15 04:06:53;;;;;;;12.27;2.75;;;;;;;12.01;100.00;101474.38;4958989;29;20027;-85
2022/05/15 04:09:19;;;;;;;10.90;2.33;;;;;;;12.92;100.00;101591.50;4943477;29;20102;-85
2022/05/15 04:11:44;;;;;;;13.63;2.83;;;;;;;11.82;100.00;101408.44;4942003;29;20031;-83
2022/05/15 04:14:10;;;;;;;13.68;3.00;;;;;;;12.85;100.00;101543.88;5459718;23;20027;-82
2022/05/15 04:16:37;;;;;;;16.35;2.72;;;;;;;12.44;100.00;101423.91;4920598;29;20035;-85
2022/05/15 04:19:03;;;;;;;9.52;2.28;;;;;;;12.58;100.00;101467.19;4920003;29;20052;-84
2022/05/15 04:21:36;;;;;;;12.05;2.22;;;;;;;12.48;100.00;101445.94;4907214;29;20056;-85
2022/05/15 04:24:03;;;;;;;13.82;2.83;;;;;;;13.33;100.00;101595.38;4924046;29;20039;-83
2022/05/15 04:26:29;;;;;;;13.13;2.67;;;;;;;13.47;100.00;101632.25;4905448;29;20036;-84
2022/05/15 04:28:55;;;;;;;11.95;2.53;;;;;;;12.59;100.00;101506.69;4903672;29;20035;-85
2022/05/15 04:31:20;;;;;;;14.40;3.60;;;;;;;12.67;100.00;101545.16;4903349;29;20017;-83
2022/05/15 04:33:46;;;;;;;12.48;2.38;;;;;;;12.69;100.00;101551.22;4918260;29;20025;-84
2022/05/15 04:36:11;;;;;;;9.52;2.60;;;;;;;12.08;100.00;101456.41;4919808;29;20008;-84
2022/05/15 04:38:37;;;;;;;12.25;2.75;;;;;;;12.59;100.00;101563.38;4903471;29;20009;-82
2022/05/15 04:41:03;;;;;;;13.63;2.95;;;;;;;13.00;100.00;101639.16;4908145;29;20021;-82
2022/05/15 04:43:28;;;;;;;14.57;2.70;;;;;;;12.54;100.00;101534.25;4883559;29;20122;-84
2022/05/15 04:45:54;;;;;;;14.50;3.03;;;;;;;12.54;100.00;101528.84;4888159;29;20065;-83
2022/05/15 04:48:19;;;;;;;14.35;3.05;;;;;;;12.17;100.00;101501.09;4888215;29;20031;-85
2022/05/15 04:50:45;;;;;;;12.43;3.20;;;;;;;13.62;100.00;101721.41;4911332;29;20036;-84
2022/05/15 04:53:11;;;;;;;15.77;2.70;;;;;;;12.79;100.00;101590.56;4917935;29;20029;-83
2022/05/15 04:55:37;;;;;;;18.42;2.92;;;;;;;12.11;100.00;101501.88;4905557;29;20081;-84
2022/05/15 04:58:03;;;;;;;14.95;2.88;;;;;;;12.61;100.00;101572.09;4904506;29;20069;-84
2022/05/15 05:00:30;;;;;;;17.50;3.47;;;;;;;12.49;100.00;101525.09;4904506;29;20037;-84
2022/05/15 05:02:56;;;;;;;14.77;3.17;;;;;;;12.43;100.00;101564.47;4920852;29;20012;-84
2022/05/15 05:07:57;;;;;;;17.83;3.03;;;;;;;13.37;100.00;101740.72;5059883;23;20095;-82
2022/05/15 05:10:22;;;;;;;13.50;2.72;;;;;;;12.27;100.00;101573.66;4915291;29;20116;-83
2022/05/15 05:12:48;;;;;;;14.23;3.03;;;;;;;11.93;100.00;101539.25;4919960;29;20024;-84
2022/05/15 05:15:15;;;;;;;16.20;3.17;;;;;;;13.25;100.00;101744.19;4920271;29;20072;-84
2022/05/15 05:17:41;;;;;;;16.75;3.40;;;;;;;12.55;100.00;101633.13;4918603;29;20076;-84
2022/05/15 05:20:08;;;;;;;13.75;2.67;;;;;;;11.50;100.00;101491.41;4919488;29;20021;-85
2022/05/15 05:25:01;;;;;;;15.43;3.20;;;;;;;13.08;100.00;101744.41;4889218;29;20053;-84
2022/05/15 05:27:26;;;;;;;15.52;3.10;;;;;;;12.86;100.00;101723.81;4900240;29;20069;-84
2022/05/15 05:29:52;;;;;;;14.90;3.35;;;;;;;12.94;100.00;101729.06;4883096;29;20055;-84
2022/05/15 05:32:18;;;;;;;13.70;2.92;;;;;;;12.86;100.00;101754.34;4877142;29;20040;-83
2022/05/15 05:34:43;;;;;;;23.42;4.20;;;;;;;12.41;100.00;101736.56;4851424;29;20042;-83
2022/05/15 05:37:09;;;;;;;15.85;3.75;;;;;;;12.38;100.00;101755.81;4853882;29;20082;-80
2022/05/15 05:39:34;;;;;;;15.98;3.15;;;;;;;12.33;100.00;101747.47;4867304;29;20030;-80
2022/05/15 05:41:59;;;;;;;13.85;2.97;;;;;;;12.31;100.00;101749.50;4868660;29;20055;-79
2022/05/15 05:44:25;;;;;;;14.95;3.70;;;;;;;12.17;100.00;101727.75;4877855;29;20108;-81
2022/05/15 05:46:51;;;;;;;11.15;2.85;;;;;;;12.03;100.00;101714.28;4861687;29;20017;-80
2022/05/15 05:49:16;;;;;;;10.50;2.88;;;;;;;12.04;100.00;101721.34;4850567;29;20539;-81
2022/05/15 05:51:42;;;;;;;10.88;3.10;;;;;;;12.09;100.00;101743.22;4820199;29;20056;-81
2022/05/15 05:54:07;;;;;;;17.60;4.00;;;;;;;12.16;100.00;101739.56;4870058;29;20045;-83
2022/05/15 05:56:33;;;;;;;16.88;3.20;;;;;;;12.28;100.00;101768.78;4860034;29;20025;-82
2022/05/15 05:58:58;;;;;;;15.05;3.08;;;;;;;12.20;100.00;101757.06;4863240;29;20038;-83
2022/05/15 06:01:23;;;;;;;18.23;3.60;;;;;;;12.20;100.00;101762.44;4856836;29;20124;-82
2022/05/15 06:06:32;;;;;;;10.73;2.15;;;;;;;12.21;100.00;101766.81;4864440;29;20063;-85
2022/05/15 06:08:58;;;;;;;14.48;4.15;;;;;;;12.28;100.00;101763.38;4868003;29;20045;-83
2022/05/15 06:11:23;;;;;;;16.73;2.90;;;;;;;12.14;100.00;101730.81;4869513;29;20025;-80
2022/05/15 06:13:48;;;;;;;15.93;2.33;;;;;;;12.51;100.00;101787.56;4863131;29;20017;-83
2022/05/15 06:16:14;;;;;;;15.13;3.03;;;;;;;12.51;100.00;101783.00;4855655;29;20041;-79
2022/05/15 06:18:40;;;;;;;13.20;3.40;;;;;;;12.50;100.00;101767.84;4842074;29;20033;-79
2022/05/15 06:21:05;;;;;;;11.93;2.78;;;;;;;12.36;100.00;101752.50;4861397;29;20026;-79
2022/05/15 06:23:32;;;;;;;15.90;2.88;;;;;;;12.55;100.00;101775.34;4871781;29;20592;-79
2022/05/15 06:25:57;;;;;;;13.15;2.88;;;;;;;12.32;100.00;101765.53;4899890;29;20476;-81
2022/05/15 06:28:23;;;;;;;12.07;2.92;;;;;;;12.40;100.00;101783.47;4881337;29;20123;-78
2022/05/15 06:30:48;;;;;;;14.50;3.33;;;;;;;12.55;100.00;101788.84;4854169;29;20029;-78
2022/05/15 06:33:14;;;;;;;16.23;3.80;;;;;;;12.60;100.00;101806.19;4850546;29;20043;-80
2022/05/15 06:35:39;;;;;;;12.52;3.03;;;;;;;12.48;100.00;101794.16;4884270;29;20113;-79
2022/05/15 06:38:07;;;;;;;15.20;3.22;;;;;;;12.56;100.00;101795.94;4883667;29;20363;-80
2022/05/15 06:40:33;;;;;;;14.85;3.33;;;;;;;12.69;100.00;101782.63;4883976;29;20093;-79
2022/05/15 06:42:58;;;;;;;15.82;3.70;;;;;;;12.51;100.00;101785.69;4882768;29;20116;-79
2022/05/15 06:45:26;;;;;;;17.35;3.97;;;;;;;12.61;100.00;101813.25;4866890;29;20112;-79
2022/05/15 06:47:51;;;;;;;10.80;2.78;;;;;;;12.59;100.00;101791.00;4889295;29;20037;-80
2022/05/15 06:50:18;;;;;;;13.40;3.40;;;;;;;12.68;100.00;101811.50;4882406;29;20124;-78
2022/05/15 06:52:44;;;;;;;16.98;3.70;;;;;;;12.68;100.00;101807.94;4863888;29;20053;-79
2022/05/15 06:55:15;;;;;;;16.60;3.88;;;;;;;12.73;100.00;101815.47;4879417;29;20428;-79
2022/05/15 06:57:42;;;;;;;21.08;3.95;;;;;;;12.76;100.00;101810.53;4879216;29;20085;-79
2022/05/15 07:00:15;;;;;;;10.85;3.10;;;;;;;12.82;100.00;101819.75;4866947;29;20446;-80
2022/05/15 07:02:41;;;;;;;19.98;4.03;;;;;;;12.69;100.00;101791.53;4882404;29;20446;-79
2022/05/15 07:05:09;;;;;;;18.10;4.50;;;;;;;12.76;100.00;101810.53;4866218;29;20104;-80
2022/05/15 07:07:34;;;;;;;17.35;3.50;;;;;;;12.82;100.00;101807.09;4875262;29;20111;-80
2022/05/15 07:09:59;;;;;;;14.27;2.72;;;;;;;12.64;100.00;101815.56;4885186;29;20040;-79
2022/05/15 07:12:25;;;;;;;11.27;2.78;;;;;;;12.70;100.00;101814.81;4892913;29;20037;-80
2022/05/15 07:14:51;;;;;;;16.77;3.15;;;;;;;12.66;100.00;101821.63;4851198;29;20044;-79
2022/05/15 07:17:16;;;;;;;12.85;2.65;;;;;;;12.64;100.00;101812.88;4868110;29;20116;-79
2022/05/15 07:19:43;;;;;;;18.30;3.83;;;;;;;12.76;100.00;101815.09;4876021;29;20044;-78
2022/05/15 07:22:12;;;;;;;11.57;2.83;;;;;;;12.72;100.00;101830.00;4867453;29;20052;-78
2022/05/15 07:24:39;;;;;;;11.60;2.70;;;;;;;12.75;100.00;101833.19;4867541;29;20053;-80
2022/05/15 07:27:06;;;;;;;11.73;2.45;;;;;;;12.72;100.00;101821.91;4856253;29;20498;-80
2022/05/15 07:29:36;;;;;;;14.57;3.25;;;;;;;12.55;100.00;101834.75;4885112;29;20029;-81
2022/05/15 07:32:02;;;;;;;11.95;2.40;;;;;;;12.84;100.00;101831.19;4885669;29;20037;-79
2022/05/15 07:34:27;;;;;;;12.50;2.72;;;;;;;12.79;100.00;101830.94;4865066;29;20033;-80
2022/05/15 07:36:53;;;;;;;12.90;2.83;;;;;;;12.84;100.00;101850.94;4886794;29;20047;-81
2022/05/15 07:39:20;;;;;;;12.20;2.72;;;;;;;12.81;100.00;101818.06;4886561;29;20086;-81
2022/05/15 07:41:45;;;;;;;9.52;2.58;;;;;;;12.77;100.00;101827.56;4873603;29;20103;-81
2022/05/15 07:44:11;;;;;;;13.18;2.47;;;;;;;12.85;100.00;101857.19;4875413;29;20037;-81
2022/05/15 07:46:36;;;;;;;8.57;2.47;;;;;;;12.83;100.00;101859.22;4884368;29;20044;-80
2022/05/15 07:49:01;;;;;;;12.25;2.60;;;;;;;12.87;100.00;101857.81;4889573;29;20088;-80
2022/05/15 07:51:29;;;;;;;11.52;2.55;;;;;;;12.58;100.00;101819.03;4886381;29;20060;-79
2022/05/15 07:53:54;;;;;;;15.77;2.50;;;;;;;12.79;100.00;101852.53;4873479;29;20045;-80
2022/05/15 07:56:19;;;;;;;18.85;3.25;;;;;;;12.91;100.00;101864.53;4876277;29;20025;-80
2022/05/15 07:58:45;;;;;;;15.48;3.22;;;;;;;12.81;100.00;101856.72;4868656;29;20412;-79
2022/05/15 08:01:10;;;;;;;13.55;2.85;;;;;;;12.98;100.00;101876.28;4868545;29;20025;-78
2022/05/15 08:03:39;;;;;;;11.82;2.38;;;;;;;12.84;100.00;101861.72;4881452;29;20112;-79
2022/05/15 08:08:50;;;;;;;14.73;2.72;;;;;;;13.01;100.00;101873.16;4882617;29;20036;-79
2022/05/15 08:11:15;;;;;;;16.80;2.58;;;;;;;12.91;100.00;101869.91;4881391;29;20041;-78
2022/05/15 08:13:41;;;;;;;9.07;2.20;;;;;;;12.80;100.00;101860.44;4849429;29;20037;-77
2022/05/15 08:16:08;;;;;;;9.23;2.10;;;;;;;12.72;100.00;101870.53;4834922;29;20460;-77
2022/05/15 08:24:03;;;;;;;13.88;2.70;;;;;;;12.88;100.00;101891.91;4869677;29;20116;-77
2022/05/15 08:26:29;;;;;;;10.13;2.30;;;;;;;12.81;100.00;101889.13;4870064;29;20136;-76
2022/05/15 08:28:55;;;;;;;11.73;2.08;;;;;;;12.93;100.00;101898.44;4866334;29;20034;-77
2022/05/15 08:31:24;;;;;;;11.80;2.50;;;;;;;12.13;100.00;101766.09;4864204;29;20025;-77
2022/05/15 08:33:50;;;;;;;11.10;2.60;;;;;;;12.96;100.00;101902.63;4864571;29;20029;-76
2022/05/15 08:36:15;;;;;;;14.95;2.45;;;;;;;13.09;100.00;101901.97;4879254;29;20032;-76
2022/05/15 08:38:42;;;;;;;7.43;2.08;;;;;;;13.01;100.00;101894.78;4859224;29;20042;-77
2022/05/15 08:41:35;;;;;;;11.32;2.30;;;;;;;13.22;100.00;101901.28;4861985;29;20426;-77
2022/05/15 08:44:06;;;;;;;8.05;1.80;;;;;;;13.08;100.00;101892.19;4869938;29;20085;-76
2022/05/15 08:46:34;;;;;;;10.52;2.35;;;;;;;13.19;100.00;101907.06;4862789;29;20364;-77
2022/05/15 08:49:39;;;;;;;12.38;2.63;;;;;;;13.20;100.00;101908.75;4862084;29;20021;-77
2022/05/15 08:52:04;;;;;;;11.40;2.23;;;;;;;13.17;100.00;101916.19;4848041;29;20037;-77
2022/05/15 08:54:33;;;;;;;5.70;1.77;;;;;;;13.23;100.00;101920.00;4861718;29;20031;-76
2022/05/15 08:56:59;;;;;;;7.38;1.98;;;;;;;13.15;100.00;101896.63;4859414;29;20043;-77
2022/05/15 08:59:51;;;;;;;9.65;1.92;;;;;;;13.25;100.00;101912.59;4838826;29;20029;-77
2022/05/15 09:02:16;;;;;;;8.73;2.00;;;;;;;13.33;100.00;101909.75;4849745;29;20041;-77
2022/05/15 09:04:42;;;;;;;9.68;2.35;;;;;;;13.37;100.00;101915.63;4860685;29;20033;-77
2022/05/15 09:07:38;;;;;;;4.40;1.63;;;;;;;13.20;100.00;101893.34;4860742;29;20041;-78
2022/05/15 09:10:16;;;;;;;8.48;2.00;;;;;;;13.36;100.00;101919.38;4862066;29;20128;-79
2022/05/15 09:12:45;;;;;;;7.32;1.77;;;;;;;13.38;100.00;101909.22;4861330;29;20029;-79
2022/05/15 09:15:22;;;;;;;10.07;2.20;;;;;;;13.28;100.00;101901.41;4862206;29;20467;-78
2022/05/15 09:18:03;;;;;;;5.57;1.52;;;;;;;13.25;100.00;101906.34;4860834;29;20452;-78
2022/05/15 09:20:54;;;;;;;8.82;2.03;;;;;;;13.39;100.00;101924.41;4860762;29;20041;-78
2022/05/15 09:23:40;;;;;;;6.13;1.85;;;;;;;13.31;100.00;101925.34;4867752;29;20416;-78
2022/05/15 09:26:24;;;;;;;14.15;2.50;;;;;;;13.44;100.00;101921.09;4878820;29;20195;-77
2022/05/15 09:28:52;;;;;;;7.75;1.80;;;;;;;13.32;100.00;101916.22;4879646;29;20475;-78
2022/05/15 09:31:23;;;;;;;8.20;1.90;;;;;;;13.43;100.00;101936.50;4863833;29;20064;-78
2022/05/15 09:34:03;;;;;;;12.60;2.05;;;;;;;13.53;100.00;101937.03;4885813;29;20032;-79
2022/05/15 09:36:48;;;;;;;11.30;2.05;;;;;;;13.44;100.00;101931.91;4886674;29;20033;-79
2022/05/15 09:39:20;;;;;;;13.43;2.38;;;;;;;13.44;100.00;101927.34;4876899;29;20044;-78
2022/05/15 09:45:26;;;;;;;7.57;1.80;;;;;;;13.39;100.00;101932.50;4862190;29;20185;-78
2022/05/15 09:47:51;;;;;;;10.97;2.07;;;;;;;13.33;100.00;101935.97;4878030;29;20033;-78
2022/05/15 09:50:41;;;;;;;8.38;1.77;;;;;;;13.55;100.00;101951.19;4879460;29;20401;-78
2022/05/15 09:53:12;;;;;;;6.53;1.90;;;;;;;13.43;100.00;101936.50;4878350;29;20494;-78
2022/05/15 09:55:37;;;;;;;7.05;1.70;;;;;;;13.46;100.00;101941.53;4878315;29;20064;-78
2022/05/15 09:58:15;;;;;;;10.75;2.30;;;;;;;13.58;100.00;101955.41;4847036;29;20068;-79
2022/05/15 10:00:44;;;;;;;8.07;1.77;;;;;;;13.62;100.00;101957.53;4879433;29;20033;-79
2022/05/15 10:03:23;;;;;;;7.75;1.52;;;;;;;13.74;100.00;101944.34;4876033;29;20047;-80
2022/05/15 10:05:58;;;;;;;10.20;2.28;;;;;;;13.75;100.00;101966.81;4879090;29;20036;-79
2022/05/15 10:08:26;;;;;;;8.18;1.63;;;;;;;13.69;100.00;101960.28;4883887;29;20021;-79
2022/05/15 10:11:11;;;;;;;6.50;2.00;;;;;;;13.77;100.00;101960.16;4879757;29;20084;-80
2022/05/15 10:13:52;;;;;;;6.95;1.58;;;;;;;13.86;100.00;101955.47;4878004;29;20032;-79
2022/05/15 10:16:18;;;;;;;9.15;1.90;;;;;;;13.88;100.00;101966.13;4879047;29;20041;-79
2022/05/15 10:19:08;;;;;;;9.77;2.10;;;;;;;13.66;100.00;101946.31;4876553;29;20093;-78
2022/05/15 10:21:42;;;;;;;8.82;2.30;;;;;;;13.60;100.00;101954.16;4878819;29;20029;-78
2022/05/15 10:24:16;;;;;;;9.77;2.20;;;;;;;13.57;100.00;101970.75;4878382;29;20049;-79
2022/05/15 10:26:56;;;;;;;7.78;2.00;;;;;;;13.52;100.00;101967.81;4876825;29;20037;-78
2022/05/15 10:29:49;;;;;;;8.65;2.33;;;;;;;13.62;100.00;101971.03;4881129;29;20025;-78
2022/05/15 10:32:26;;;;;;;7.45;2.20;;;;;;;13.55;100.00;101967.44;4876635;29;20773;-78
2022/05/15 10:34:52;;;;;;;9.25;2.15;;;;;;;13.52;100.00;101950.75;4875919;29;20029;-78
2022/05/15 10:37:57;;;;;;;9.68;1.98;;;;;;;13.90;100.00;101974.88;4846928;29;20040;-78
2022/05/15 10:40:41;;;;;;;8.65;1.60;;;;;;;13.82;100.00;101975.84;4862577;29;20474;-79
2022/05/15 10:43:15;;;;;;;7.55;1.88;;;;;;;13.99;100.00;101969.13;4879430;29;20053;-78
2022/05/15 10:46:31;;;;;;;8.70;2.10;;;;;;;14.04;100.00;101977.53;4885634;29;20050;-78
2022/05/15 10:49:38;;;;;;;8.00;1.70;;;;;;;14.02;100.00;101966.03;4850765;29;20037;-78
2022/05/15 10:52:29;;;;;;;7.85;1.80;;;;;;;14.12;100.00;101971.13;4843591;29;20037;-79
2022/05/15 10:58:02;;;;;;;8.85;2.10;;;;;;;13.91;100.00;101963.88;4878031;29;20057;-78
2022/05/15 11:00:37;;;;;;;8.88;2.45;;;;;;;13.79;100.00;101958.13;4877694;29;20036;-78
2022/05/15 11:03:37;;;;;;;9.75;2.20;;;;;;;13.92;100.00;101970.94;4877631;29;20061;-80
2022/05/15 11:06:15;;;;;;;11.00;2.20;;;;;;;13.89;100.00;101975.91;4862549;29;20034;-81
2022/05/15 11:08:46;;;;;;;9.45;2.13;;;;;;;13.60;100.00;101943.34;4879459;29;20029;-81
2022/05/15 11:11:44;;;;;;;9.02;2.10;;;;;;;13.93;100.00;101964.50;4886345;29;20149;-82
2022/05/15 11:14:26;;;;;;;9.50;2.17;;;;;;;14.03;100.00;101967.72;4896583;29;20119;-80
2022/05/15 11:16:51;;;;;;;11.93;2.83;;;;;;;14.04;100.00;101972.13;4880721;29;20029;-78
2022/05/15 11:19:31;;;;;;;9.45;2.05;;;;;;;14.12;100.00;101967.59;4880432;29;20515;-81
2022/05/15 11:22:18;;;;;;;8.73;2.22;;;;;;;14.13;100.00;101970.09;4891584;29;20032;-81
2022/05/15 11:25:10;;;;;;;10.68;2.30;;;;;;;14.10;100.00;101965.06;4901106;29;20045;-81
2022/05/15 11:27:49;;;;;;;7.32;2.30;;;;;;;14.09;100.00;101964.25;4888772;29;20092;-81
2022/05/15 11:30:36;;;;;;;9.82;2.30;;;;;;;14.11;100.00;101958.66;4891439;29;20044;-81
2022/05/15 11:33:24;;;;;;;7.95;1.83;;;;;;;14.00;100.00;101951.84;4895591;29;20367;-79
2022/05/15 11:36:26;;;;;;;8.35;1.63;;;;;;;14.10;100.00;101949.69;4886084;29;20028;-79
2022/05/15 11:39:12;;;;;;;8.27;2.10;;;;;;;14.13;100.00;101959.28;4887264;29;20111;-78
2022/05/15 11:41:40;;;;;;;7.30;1.90;;;;;;;14.24;100.00;101972.31;4895823;29;20051;-78
2022/05/15 11:44:14;;;;;;;7.38;1.80;;;;;;;14.15;100.00;101962.63;4880867;29;20344;-77
2022/05/15 11:46:46;;;;;;;6.97;1.67;;;;;;;14.21;100.00;101964.56;4881960;29;20028;-79
2022/05/15 11:49:39;;;;;;;11.02;2.03;;;;;;;14.03;100.00;101956.06;4881610;29;20100;-78